createdAt,value
2023-01-21T00:01:27.153Z,99153.38
2023-01-21T00:03:54.743Z,99161.44
2023-01-21T00:06:22.313Z,99157.88
2023-01-21T00:08:49.849Z,99153.81
2023-01-21T00:11:17.524Z,99152.25
2023-01-21T00:13:45.721Z,99156.31
2023-01-21T00:16:14.062Z,99152.94
2023-01-21T00:18:42.344Z,99154.78
2023-01-21T00:21:10.262Z,99156.91
2023-01-21T00:23:37.842Z,99166.94
2023-01-21T00:26:08.545Z,99167.47
2023-01-21T00:28:37.776Z,99167.59
2023-01-21T00:31:07.947Z,99175.88
2023-01-21T00:33:37.224Z,99175.88
2023-01-21T00:36:09.722Z,99170.72
2023-01-21T00:38:40.704Z,99180.56
2023-01-21T00:41:11.918Z,99183.22
2023-01-21T00:43:40.515Z,99171.06
2023-01-21T00:46:09.017Z,99169.28
2023-01-21T00:48:37.018Z,99182.28
2023-01-21T00:51:04.888Z,99189.09
2023-01-21T00:53:35.565Z,99194.88
2023-01-21T00:56:08.983Z,99193.41
2023-01-21T00:58:37.407Z,99185.38
2023-01-21T01:01:15.695Z,99183.31
2023-01-21T01:03:44.561Z,99185.63
2023-01-21T01:06:15.929Z,99185.25
2023-01-21T01:08:45.341Z,99179.31
2023-01-21T01:11:14.537Z,99182.22
2023-01-21T01:13:42.612Z,99178.28
2023-01-21T01:16:13.376Z,99177.00
2023-01-21T01:18:41.400Z,99176.41
2023-01-21T01:21:14.239Z,99180.78
2023-01-21T01:23:43.538Z,99175.19
2023-01-21T01:26:15.334Z,99172.88
2023-01-21T01:28:43.543Z,99160.13
2023-01-21T01:31:15.778Z,99159.81
2023-01-21T01:33:44.014Z,99151.69
2023-01-21T01:36:23.711Z,99158.25
2023-01-21T01:38:54.974Z,99160.91
2023-01-21T01:41:30.148Z,99154.44
2023-01-21T01:44:45.526Z,99154.44
2023-01-21T01:47:13.672Z,99172.50
2023-01-21T01:49:42.294Z,99168.13
2023-01-21T01:52:12.614Z,99159.84
2023-01-21T01:54:49.204Z,99152.81
2023-01-21T01:57:20.885Z,99157.97
2023-01-21T01:59:51.057Z,99160.81
2023-01-21T02:02:20.883Z,99160.31
2023-01-21T02:04:55.320Z,99171.28
2023-01-21T02:07:26.226Z,99177.78
2023-01-21T02:09:54.558Z,99171.84
2023-01-21T02:12:22.738Z,99158.63
2023-01-21T02:14:50.943Z,99151.94
2023-01-21T02:17:48.638Z,99151.19
2023-01-21T02:20:39.320Z,99162.34
2023-01-21T02:23:44.607Z,99154.50
2023-01-21T02:26:45.942Z,99154.47
2023-01-21T02:29:58.033Z,99163.44
2023-01-21T02:32:59.208Z,99156.44
2023-01-21T02:35:48.800Z,99157.72
2023-01-21T02:38:25.191Z,99154.53
2023-01-21T02:41:02.615Z,99145.78
2023-01-21T02:43:51.959Z,99146.28
2023-01-21T02:46:27.863Z,99140.88
2023-01-21T02:49:08.342Z,99155.84
2023-01-21T02:51:36.060Z,99154.00
2023-01-21T02:54:35.973Z,99152.75
2023-01-21T02:57:04.212Z,99158.38
2023-01-21T02:59:32.835Z,99144.75
2023-01-21T03:02:21.668Z,99152.91
2023-01-21T03:05:11.966Z,99149.50
2023-01-21T03:08:06.050Z,99142.59
2023-01-21T03:10:55.325Z,99135.81
2023-01-21T03:14:01.251Z,99127.84
2023-01-21T03:17:01.888Z,99130.16
2023-01-21T03:19:51.064Z,99144.41
2023-01-21T03:22:28.643Z,99152.47
2023-01-21T03:24:58.874Z,99150.38
2023-01-21T03:27:29.288Z,99142.41
2023-01-21T03:30:25.757Z,99142.09
2023-01-21T03:32:55.722Z,99143.91
2023-01-21T03:35:36.054Z,99143.66
2023-01-21T03:38:31.554Z,99143.44
2023-01-21T03:41:33.593Z,99152.25
2023-01-21T03:44:01.610Z,99133.34
2023-01-21T03:46:58.223Z,99127.38
2023-01-21T03:49:41.768Z,99127.38
2023-01-21T03:52:11.653Z,99135.09
2023-01-21T03:54:40.750Z,99131.09
2023-01-21T03:57:08.391Z,99118.47
2023-01-21T03:59:35.990Z,99119.81
2023-01-21T04:02:03.504Z,99127.03
2023-01-21T04:04:31.004Z,99134.53
2023-01-21T04:06:58.599Z,99125.78
2023-01-21T04:09:26.159Z,99140.28
2023-01-21T04:11:53.704Z,99143.91
2023-01-21T04:14:21.346Z,99151.91
2023-01-21T04:16:48.816Z,99159.13
2023-01-21T04:19:16.353Z,99165.59
2023-01-21T04:21:43.925Z,99163.97
2023-01-21T04:24:11.606Z,99171.28
2023-01-21T04:26:39.217Z,99165.53
2023-01-21T04:29:06.769Z,99146.47
2023-01-21T04:31:34.370Z,99152.72
2023-01-21T04:34:01.955Z,99156.16
2023-01-21T04:36:29.574Z,99162.38
2023-01-21T04:38:57.169Z,99169.63
2023-01-21T04:41:25.585Z,99182.34
2023-01-21T04:43:53.330Z,99192.13
2023-01-21T04:46:20.917Z,99188.50
2023-01-21T04:48:48.519Z,99189.03
2023-01-21T04:51:16.119Z,99189.78
2023-01-21T04:53:43.733Z,99216.50
2023-01-21T04:56:11.266Z,99198.09
2023-01-21T04:58:38.874Z,99182.34
2023-01-21T05:01:06.698Z,99207.97
2023-01-21T05:03:34.310Z,99207.44
2023-01-21T05:06:01.760Z,99201.75
2023-01-21T05:08:29.278Z,99200.97
2023-01-21T05:10:56.744Z,99211.59
2023-01-21T05:13:24.357Z,99214.16
2023-01-21T05:15:52.093Z,99206.38
2023-01-21T05:18:19.724Z,99198.59
2023-01-21T05:20:47.244Z,99207.94
2023-01-21T05:23:14.765Z,99205.56
2023-01-21T05:25:42.294Z,99215.44
2023-01-21T05:28:09.850Z,99211.25
2023-01-21T05:30:40.221Z,99212.75
2023-01-21T05:33:08.271Z,99217.22
2023-01-21T05:35:36.365Z,99235.91
2023-01-21T05:38:03.909Z,99225.53
2023-01-21T05:40:31.468Z,99228.09
2023-01-21T05:42:59.051Z,99227.59
2023-01-21T05:45:28.057Z,99231.47
2023-01-21T05:47:55.557Z,99225.00
2023-01-21T05:50:23.232Z,99224.47
2023-01-21T05:52:50.718Z,99196.19
2023-01-21T05:55:18.594Z,99201.88
2023-01-21T05:57:48.908Z,99211.44
2023-01-21T06:00:17.469Z,99232.97
2023-01-21T06:02:45.172Z,99231.69
2023-01-21T06:05:12.718Z,99227.00
2023-01-21T06:07:40.256Z,99230.91
2023-01-21T06:10:08.702Z,99244.06
2023-01-21T06:12:36.380Z,99241.47
2023-01-21T06:15:04.239Z,99246.19
2023-01-21T06:17:32.284Z,99235.38
2023-01-21T06:20:01.258Z,99246.03
2023-01-21T06:22:30.121Z,99237.97
2023-01-21T06:24:57.791Z,99233.34
2023-01-21T06:27:25.375Z,99235.97
2023-01-21T06:29:52.904Z,99248.94
2023-01-21T06:32:20.579Z,99245.88
2023-01-21T06:34:48.172Z,99246.25
2023-01-21T06:37:15.760Z,99241.56
2023-01-21T06:39:44.640Z,99244.66
2023-01-21T06:42:12.180Z,99249.81
2023-01-21T06:44:40.171Z,99246.59
2023-01-21T06:47:08.381Z,99241.50
2023-01-21T06:49:36.051Z,99240.38
2023-01-21T06:52:06.804Z,99235.84
2023-01-21T06:54:34.482Z,99240.56
2023-01-21T06:57:03.225Z,99250.00
2023-01-21T06:59:30.944Z,99249.59
2023-01-21T07:01:59.285Z,99247.66
2023-01-21T07:04:28.289Z,99254.94
2023-01-21T07:06:55.850Z,99265.50
2023-01-21T07:09:23.953Z,99281.28
2023-01-21T07:11:51.650Z,99270.97
2023-01-21T07:14:19.175Z,99283.09
2023-01-21T07:16:46.785Z,99293.75
2023-01-21T07:19:15.075Z,99292.09
2023-01-21T07:21:42.977Z,99287.56
2023-01-21T07:24:10.548Z,99292.19
2023-01-21T07:26:40.700Z,99289.72
2023-01-21T07:29:08.687Z,99289.13
2023-01-21T07:31:38.901Z,99297.47
2023-01-21T07:34:06.677Z,99306.00
2023-01-21T07:36:34.160Z,99306.53
2023-01-21T07:39:01.939Z,99310.00
2023-01-21T07:41:29.481Z,99298.84
2023-01-21T07:43:57.040Z,99287.84
2023-01-21T07:46:24.657Z,99282.09
2023-01-21T07:48:52.565Z,99270.28
2023-01-21T07:51:21.368Z,99279.69
2023-01-21T07:53:49.639Z,99278.75
2023-01-21T07:56:18.510Z,99285.91
2023-01-21T07:58:47.183Z,99275.06
2023-01-21T08:01:14.893Z,99281.81
2023-01-21T08:03:42.421Z,99284.63
2023-01-21T08:06:10.189Z,99272.06
2023-01-21T08:08:37.656Z,99277.28
2023-01-21T08:11:05.354Z,99293.53
2023-01-21T08:13:32.802Z,99302.91
2023-01-21T08:16:01.834Z,99308.97
2023-01-21T08:18:29.338Z,99317.41
2023-01-21T08:20:58.501Z,99314.03
2023-01-21T08:23:27.254Z,99309.13
2023-01-21T08:25:55.524Z,99309.16
2023-01-21T08:28:23.986Z,99302.56
2023-01-21T08:30:52.149Z,99310.75
2023-01-21T08:33:21.011Z,99312.03
2023-01-21T08:35:48.435Z,99308.25
2023-01-21T08:38:15.953Z,99297.97
2023-01-21T08:40:43.450Z,99287.88
2023-01-21T08:43:10.899Z,99269.06
2023-01-21T08:45:38.425Z,99266.81
2023-01-21T08:48:06.404Z,99284.66
2023-01-21T08:50:34.342Z,99287.34
2023-01-21T08:53:01.849Z,99275.63
2023-01-21T08:55:29.329Z,99291.94
2023-01-21T08:57:58.501Z,99297.34
2023-01-21T09:00:26.494Z,99294.44
2023-01-21T09:02:54.438Z,99291.66
2023-01-21T09:05:22.533Z,99274.88
2023-01-21T09:07:50.101Z,99265.59
2023-01-21T09:10:37.807Z,99271.00
2023-01-21T09:13:07.245Z,99262.50
2023-01-21T09:15:42.977Z,99252.81
2023-01-21T09:18:10.959Z,99250.97
2023-01-21T09:20:39.815Z,99264.00
2023-01-21T09:23:24.915Z,99258.94
2023-01-21T09:25:53.125Z,99242.94
2023-01-21T09:28:23.944Z,99250.09
2023-01-21T09:31:01.026Z,99252.91
2023-01-21T09:33:30.179Z,99244.72
2023-01-21T09:36:03.280Z,99251.50
2023-01-21T09:38:31.467Z,99257.22
2023-01-21T09:41:44.284Z,99255.56
2023-01-21T09:44:29.230Z,99251.44
2023-01-21T09:47:24.974Z,99247.03
2023-01-21T09:50:14.183Z,99239.13
2023-01-21T09:52:54.841Z,99254.34
2023-01-21T09:55:47.581Z,99247.81
2023-01-21T09:58:38.977Z,99246.16
2023-01-21T10:01:43.294Z,99249.25
2023-01-21T10:04:49.767Z,99235.81
2023-01-21T10:07:30.643Z,99239.75
2023-01-21T10:10:01.317Z,99243.91
2023-01-21T10:12:57.974Z,99239.16
2023-01-21T10:15:50.249Z,99233.66
2023-01-21T10:18:39.347Z,99232.56
2023-01-21T10:21:51.226Z,99223.66
2023-01-21T10:24:25.697Z,99213.75
2023-01-21T10:26:54.651Z,99211.25
2023-01-21T10:29:26.456Z,99207.09
2023-01-21T10:32:07.246Z,99205.19
2023-01-21T10:34:43.830Z,99191.72
2023-01-21T10:37:45.818Z,99192.69
2023-01-21T10:40:53.382Z,99187.97
2023-01-21T10:43:36.154Z,99165.41
2023-01-21T10:46:31.125Z,99163.44
2023-01-21T10:49:12.367Z,99156.75
2023-01-21T10:52:13.149Z,99154.53
2023-01-21T10:55:35.275Z,99146.28
2023-01-21T10:58:05.373Z,99146.31
2023-01-21T11:00:39.591Z,99158.50
2023-01-21T11:03:43.032Z,99155.16
2023-01-21T11:06:15.192Z,99147.44
2023-01-21T11:08:48.867Z,99144.38
2023-01-21T11:11:28.697Z,99140.59
2023-01-21T11:13:57.021Z,99135.22
2023-01-21T11:16:47.888Z,99150.25
2023-01-21T11:19:18.722Z,99138.66
2023-01-21T11:22:09.344Z,99131.41
2023-01-21T11:24:49.680Z,99131.19
2023-01-21T11:27:41.691Z,99137.94
2023-01-21T11:30:55.086Z,99130.97
2023-01-21T11:33:28.102Z,99131.28
2023-01-21T11:35:58.422Z,99131.56
2023-01-21T11:38:34.900Z,99126.22
2023-01-21T11:41:11.477Z,99130.06
2023-01-21T11:43:50.876Z,99136.66
2023-01-21T11:46:34.956Z,99138.84
2023-01-21T11:49:08.524Z,99127.81
2023-01-21T11:51:39.346Z,99124.72
2023-01-21T11:54:17.933Z,99122.63
2023-01-21T11:57:02.348Z,99118.25
2023-01-21T11:59:43.649Z,99118.25
2023-01-21T12:02:29.527Z,99115.72
2023-01-21T12:05:10.220Z,99115.50
2023-01-21T12:07:41.672Z,99113.97
2023-01-21T12:10:31.685Z,99108.03
2023-01-21T12:13:21.108Z,99107.88
2023-01-21T12:16:21.173Z,99110.25
2023-01-21T12:19:18.783Z,99108.47
2023-01-21T12:22:25.451Z,99105.03
2023-01-21T12:25:16.284Z,99099.16
2023-01-21T12:28:29.174Z,99110.22
2023-01-21T12:31:36.510Z,99124.03
2023-01-21T12:34:19.797Z,99121.38
2023-01-21T12:36:56.415Z,99122.31
2023-01-21T12:39:33.995Z,99132.75
2023-01-21T12:42:34.060Z,99147.81
2023-01-21T12:45:19.727Z,99140.66
2023-01-21T12:48:05.041Z,99154.50
2023-01-21T12:50:41.181Z,99147.31
2023-01-21T12:53:38.998Z,99151.63
2023-01-21T12:56:40.097Z,99153.78
2023-01-21T12:59:53.404Z,99145.00
2023-01-21T13:02:41.052Z,99139.91
2023-01-21T13:05:29.151Z,99142.28
2023-01-21T13:08:35.913Z,99147.06
2023-01-21T13:11:44.696Z,99146.13
2023-01-21T13:14:26.355Z,99152.34
2023-01-21T13:17:15.587Z,99145.28
2023-01-21T13:19:43.201Z,99147.94
2023-01-21T13:22:22.276Z,99162.41
2023-01-21T13:25:19.589Z,99149.38
2023-01-21T13:28:12.132Z,99158.06
2023-01-21T13:31:27.172Z,99154.28
2023-01-21T13:34:30.551Z,99155.84
2023-01-21T13:37:16.028Z,99149.94
2023-01-21T13:40:20.082Z,99141.81
2023-01-21T13:43:31.056Z,99145.88
2023-01-21T13:46:25.793Z,99152.78
2023-01-21T13:49:37.662Z,99139.97
2023-01-21T13:52:27.742Z,99150.94
2023-01-21T13:55:26.637Z,99144.88
2023-01-21T13:58:39.796Z,99144.38
2023-01-21T14:01:46.869Z,99151.06
2023-01-21T14:04:33.339Z,99136.88
2023-01-21T14:07:28.748Z,99141.06
2023-01-21T14:10:40.625Z,99154.53
2023-01-21T14:13:59.588Z,99150.72
2023-01-21T14:16:57.449Z,99166.03
2023-01-21T14:19:47.007Z,99158.72
2023-01-21T14:22:38.600Z,99154.88
2023-01-21T14:28:54.196Z,99159.91
2023-01-21T14:31:38.477Z,99154.66
2023-01-21T14:34:24.888Z,99138.66
2023-01-21T14:37:08.279Z,99150.59
2023-01-21T14:40:07.322Z,99150.03
2023-01-21T14:42:56.512Z,99146.84
2023-01-21T14:45:57.546Z,99143.25
2023-01-21T14:48:42.488Z,99147.59
2023-01-21T14:51:14.993Z,99134.16
2023-01-21T14:54:16.436Z,99135.16
2023-01-21T14:57:13.781Z,99134.72
2023-01-21T14:59:47.313Z,99140.41
2023-01-21T15:02:33.355Z,99143.34
2023-01-21T15:05:10.119Z,99141.28
2023-01-21T15:07:46.883Z,99142.81
2023-01-21T15:10:32.102Z,99141.06
2023-01-21T15:13:22.439Z,99147.94
2023-01-21T15:16:07.671Z,99146.97
2023-01-21T15:18:45.493Z,99160.31
2023-01-21T15:21:42.931Z,99161.84
2023-01-21T15:24:33.138Z,99165.16
2023-01-21T15:27:33.188Z,99158.53
2023-01-21T15:30:03.203Z,99167.56
2023-01-21T15:32:40.987Z,99169.78
2023-01-21T15:35:33.684Z,99166.91
2023-01-21T15:38:19.822Z,99167.28
2023-01-21T15:41:06.878Z,99170.97
2023-01-21T15:43:55.218Z,99174.16
2023-01-21T15:47:00.729Z,99173.03
2023-01-21T15:49:50.717Z,99170.19
2023-01-21T15:52:38.674Z,99176.69
2023-01-21T15:55:40.599Z,99177.75
2023-01-21T15:58:29.161Z,99172.91
2023-01-21T16:01:41.741Z,99168.56
2023-01-21T16:04:41.047Z,99174.84
2023-01-21T16:07:17.198Z,99182.75
2023-01-21T16:10:20.612Z,99189.22
2023-01-21T16:12:56.573Z,99195.13
2023-01-21T16:15:42.734Z,99200.81
2023-01-21T16:18:45.422Z,99187.88
2023-01-21T16:21:15.111Z,99194.88
2023-01-21T16:24:04.366Z,99188.53
2023-01-21T16:26:33.439Z,99196.78
2023-01-21T16:29:02.281Z,99191.84
2023-01-21T16:31:31.369Z,99201.63
2023-01-21T16:34:01.571Z,99203.34
2023-01-21T16:36:43.121Z,99202.59
2023-01-21T16:39:11.764Z,99215.41
2023-01-21T16:41:43.327Z,99220.59
2023-01-21T16:44:17.769Z,99224.00
2023-01-21T16:46:48.804Z,99206.63
2023-01-21T16:49:18.242Z,99225.34
2023-01-21T16:52:02.656Z,99221.19
2023-01-21T16:54:33.740Z,99224.81
2023-01-21T16:57:25.149Z,99233.63
2023-01-21T16:59:56.526Z,99232.47
2023-01-21T17:02:32.887Z,99231.31
2023-01-21T17:05:08.336Z,99230.03
2023-01-21T17:07:48.726Z,99223.16
2023-01-21T17:10:42.571Z,99236.25
2023-01-21T17:13:37.902Z,99230.03
2023-01-21T17:16:11.117Z,99236.31
2023-01-21T17:18:50.647Z,99243.56
2023-01-21T17:21:45.108Z,99239.66
2023-01-21T17:24:35.007Z,99234.66
2023-01-21T17:27:11.424Z,99240.34
2023-01-21T17:29:39.317Z,99235.09
2023-01-21T17:32:32.034Z,99238.09
2023-01-21T17:35:14.121Z,99247.34
2023-01-21T17:38:04.022Z,99252.84
2023-01-21T17:40:44.608Z,99252.53
2023-01-21T17:43:27.501Z,99261.03
2023-01-21T17:45:58.462Z,99270.28
2023-01-21T17:48:40.667Z,99283.00
2023-01-21T17:51:22.357Z,99273.16
2023-01-21T17:54:26.727Z,99265.94
2023-01-21T17:56:59.165Z,99268.13
2023-01-21T17:59:39.349Z,99263.41
2023-01-21T18:02:17.918Z,99263.69
2023-01-21T18:04:50.588Z,99267.00
2023-01-21T18:07:28.614Z,99268.88
2023-01-21T18:10:04.027Z,99272.19
2023-01-21T18:12:33.893Z,99269.63
2023-01-21T18:15:04.245Z,99265.44
2023-01-21T18:17:54.423Z,99271.53
2023-01-21T18:20:33.383Z,99269.19
2023-01-21T18:23:27.186Z,99279.09
2023-01-21T18:25:57.235Z,99284.69
2023-01-21T18:28:32.350Z,99290.13
2023-01-21T18:31:03.623Z,99307.19
2023-01-21T18:33:37.400Z,99304.41
2023-01-21T18:36:09.940Z,99297.22
2023-01-21T18:38:43.223Z,99305.78
2023-01-21T18:41:34.473Z,99310.66
2023-01-21T18:44:04.030Z,99310.28
2023-01-21T18:46:37.520Z,99303.63
2023-01-21T18:49:20.172Z,99325.78
2023-01-21T18:51:49.889Z,99318.69
2023-01-21T18:54:19.018Z,99320.72
2023-01-21T18:56:51.497Z,99338.16
2023-01-21T18:59:24.149Z,99334.31
2023-01-21T19:01:56.757Z,99337.31
2023-01-21T19:04:24.693Z,99339.25
2023-01-21T19:06:56.707Z,99332.81
2023-01-21T19:09:28.346Z,99328.56
2023-01-21T19:11:59.234Z,99325.34
2023-01-21T19:14:29.408Z,99327.53
2023-01-21T19:17:00.346Z,99327.59
2023-01-21T19:19:30.268Z,99320.53
2023-01-21T19:22:02.694Z,99319.34
2023-01-21T19:24:32.871Z,99330.22
2023-01-21T19:27:02.123Z,99330.66
2023-01-21T19:29:32.725Z,99329.53
2023-01-21T19:32:01.372Z,99323.41
2023-01-21T19:34:32.398Z,99326.81
2023-01-21T19:37:01.966Z,99340.22
2023-01-21T19:39:33.872Z,99342.50
2023-01-21T19:42:08.637Z,99343.66
2023-01-21T19:44:37.948Z,99345.03
2023-01-21T19:47:17.697Z,99355.19
2023-01-21T19:49:49.264Z,99358.59
2023-01-21T19:52:19.566Z,99357.78
2023-01-21T19:55:10.634Z,99356.16
2023-01-21T19:58:15.106Z,99351.19
2023-01-21T20:00:44.699Z,99358.44
2023-01-21T20:03:15.064Z,99359.72
2023-01-21T20:05:43.959Z,99364.31
2023-01-21T20:08:19.554Z,99360.63
2023-01-21T20:10:48.664Z,99362.81
2023-01-21T20:13:18.480Z,99355.81
2023-01-21T20:16:02.398Z,99365.31
2023-01-21T20:18:33.743Z,99367.00
2023-01-21T20:21:01.939Z,99368.13
2023-01-21T20:23:33.416Z,99364.59
2023-01-21T20:26:01.805Z,99359.06
2023-01-21T20:28:45.461Z,99370.44
2023-01-21T20:31:26.008Z,99360.41
2023-01-21T20:33:53.800Z,99371.78
2023-01-21T20:36:26.863Z,99367.97
2023-01-21T20:38:55.691Z,99369.28
2023-01-21T20:41:23.615Z,99357.34
2023-01-21T20:43:51.524Z,99361.97
2023-01-21T20:46:43.568Z,99369.97
2023-01-21T20:49:13.918Z,99366.94
2023-01-21T20:51:41.810Z,99383.16
2023-01-21T20:54:09.931Z,99383.09
2023-01-21T20:56:38.792Z,99390.72
2023-01-21T20:59:06.631Z,99391.28
2023-01-21T21:01:44.551Z,99397.31
2023-01-21T21:04:13.333Z,99391.97
2023-01-21T21:06:41.073Z,99397.53
2023-01-21T21:09:13.019Z,99408.81
2023-01-21T21:11:40.677Z,99413.31
2023-01-21T21:14:09.267Z,99421.47
2023-01-21T21:16:36.943Z,99415.19
2023-01-21T21:19:04.497Z,99415.75
2023-01-21T21:21:32.134Z,99426.78
2023-01-21T21:23:59.840Z,99428.78
2023-01-21T21:26:29.544Z,99423.19
2023-01-21T21:28:57.898Z,99430.50
2023-01-21T21:31:33.050Z,99431.13
2023-01-21T21:34:00.820Z,99433.91
2023-01-21T21:36:28.638Z,99436.75
2023-01-21T21:38:56.350Z,99433.47
2023-01-21T21:41:44.902Z,99423.28
2023-01-21T21:44:13.653Z,99420.09
2023-01-21T21:47:00.315Z,99432.06
2023-01-21T21:49:29.138Z,99433.53
2023-01-21T21:52:02.567Z,99438.22
2023-01-21T21:54:33.379Z,99443.91
2023-01-21T21:57:01.114Z,99441.28
2023-01-21T21:59:28.634Z,99439.78
2023-01-21T22:01:56.310Z,99438.72
2023-01-21T22:04:24.231Z,99436.59
2023-01-21T22:06:51.927Z,99427.50
2023-01-21T22:09:19.888Z,99437.22
2023-01-21T22:11:47.517Z,99449.28
2023-01-21T22:14:15.515Z,99459.31
2023-01-21T22:16:43.616Z,99470.66
2023-01-21T22:19:12.614Z,99474.56
2023-01-21T22:21:40.173Z,99476.13
2023-01-21T22:24:08.352Z,99475.63
2023-01-21T22:26:36.666Z,99485.81
2023-01-21T22:29:06.171Z,99468.19
2023-01-21T22:31:34.635Z,99466.22
2023-01-21T22:34:02.997Z,99466.63
2023-01-21T22:36:31.879Z,99465.03
2023-01-21T22:39:00.237Z,99471.56
2023-01-21T22:41:28.576Z,99463.31
2023-01-21T22:43:57.259Z,99465.31
2023-01-21T22:46:33.802Z,99468.22
2023-01-21T22:49:01.622Z,99469.66
2023-01-21T22:51:29.409Z,99468.59
2023-01-21T22:53:57.328Z,99465.81
2023-01-21T22:56:44.936Z,99477.13
2023-01-21T22:59:14.960Z,99469.72
2023-01-21T23:01:43.114Z,99479.44
2023-01-21T23:04:11.904Z,99480.78
2023-01-21T23:06:40.636Z,99479.41
2023-01-21T23:09:12.418Z,99478.19
2023-01-21T23:11:40.259Z,99473.09
2023-01-21T23:14:09.997Z,99477.25
2023-01-21T23:16:37.708Z,99478.91
2023-01-21T23:19:05.366Z,99486.75
2023-01-21T23:21:38.839Z,99488.72
2023-01-21T23:24:07.649Z,99482.97
2023-01-21T23:26:35.381Z,99479.09
2023-01-21T23:29:06.059Z,99485.13
2023-01-21T23:31:36.688Z,99476.72
2023-01-21T23:34:04.617Z,99468.56
2023-01-21T23:36:32.168Z,99466.69
2023-01-21T23:39:01.966Z,99465.47
2023-01-21T23:41:29.597Z,99472.88
2023-01-21T23:44:02.559Z,99484.03
2023-01-21T23:46:30.827Z,99478.47
2023-01-21T23:48:58.590Z,99478.75
2023-01-21T23:51:26.167Z,99479.53
2023-01-21T23:53:53.771Z,99484.06
2023-01-21T23:56:26.619Z,99490.97
2023-01-21T23:58:55.038Z,99497.31
